sensor_id;sensor_type;location;lat;lon;timestamp;temperature;humidity
9323;DHT22;4700;48.822;9.270;2023-05-23T00:00:29;17.40;1.00
9323;DHT22;4700;48.822;9.270;2023-05-23T00:03:16;17.20;1.00
9323;DHT22;4700;48.822;9.270;2023-05-23T00:06:06;17.20;1.00
9323;DHT22;4700;48.822;9.270;2023-05-23T00:08:53;17.20;1.00
9323;DHT22;4700;48.822;9.270;2023-05-23T00:11:39;17.10;1.00
9323;DHT22;4700;48.822;9.270;2023-05-23T00:14:28;17.10;1.00
9323;DHT22;4700;48.822;9.270;2023-05-23T00:17:17;17.10;1.00
9323;DHT22;4700;48.822;9.270;2023-05-23T00:20:10;17.10;1.00
9323;DHT22;4700;48.822;9.270;2023-05-23T00:23:03;17.00;1.00
9323;DHT22;4700;48.822;9.270;2023-05-23T00:25:50;17.00;1.00
9323;DHT22;4700;48.822;9.270;2023-05-23T00:28:39;17.00;1.00
9323;DHT22;4700;48.822;9.270;2023-05-23T00:31:24;16.90;1.00
9323;DHT22;4700;48.822;9.270;2023-05-23T00:34:10;16.70;1.00
9323;DHT22;4700;48.822;9.270;2023-05-23T00:36:59;16.90;1.00
9323;DHT22;4700;48.822;9.270;2023-05-23T00:42:32;16.90;1.00
9323;DHT22;4700;48.822;9.270;2023-05-23T00:45:18;16.80;1.00
9323;DHT22;4700;48.822;9.270;2023-05-23T00:48:04;16.70;1.00
9323;DHT22;4700;48.822;9.270;2023-05-23T00:50:50;17.90;1.00
9323;DHT22;4700;48.822;9.270;2023-05-23T00:53:36;16.80;1.00
9323;DHT22;4700;48.822;9.270;2023-05-23T00:56:21;16.70;1.00
9323;DHT22;4700;48.822;9.270;2023-05-23T00:59:11;16.60;1.00
9323;DHT22;4700;48.822;9.270;2023-05-23T01:01:59;16.60;1.00
9323;DHT22;4700;48.822;9.270;2023-05-23T01:04:45;16.60;1.00
9323;DHT22;4700;48.822;9.270;2023-05-23T01:07:31;16.60;1.00
9323;DHT22;4700;48.822;9.270;2023-05-23T01:10:19;16.60;1.00
9323;DHT22;4700;48.822;9.270;2023-05-23T01:13:12;16.60;1.00
9323;DHT22;4700;48.822;9.270;2023-05-23T01:16:06;16.60;1.00
9323;DHT22;4700;48.822;9.270;2023-05-23T01:19:15;16.60;1.00
9323;DHT22;4700;48.822;9.270;2023-05-23T01:22:11;16.60;1.00
9323;DHT22;4700;48.822;9.270;2023-05-23T01:25:07;16.60;1.00
9323;DHT22;4700;48.822;9.270;2023-05-23T01:28:00;16.50;1.00
9323;DHT22;4700;48.822;9.270;2023-05-23T01:30:47;16.50;1.00
9323;DHT22;4700;48.822;9.270;2023-05-23T01:33:35;16.40;1.00
9323;DHT22;4700;48.822;9.270;2023-05-23T01:36:22;16.40;1.00
9323;DHT22;4700;48.822;9.270;2023-05-23T01:39:08;16.40;1.00
9323;DHT22;4700;48.822;9.270;2023-05-23T01:41:54;16.40;1.00
9323;DHT22;4700;48.822;9.270;2023-05-23T01:44:42;16.40;1.00
9323;DHT22;4700;48.822;9.270;2023-05-23T01:47:31;16.30;1.00
9323;DHT22;4700;48.822;9.270;2023-05-23T01:50:21;16.30;1.00
9323;DHT22;4700;48.822;9.270;2023-05-23T01:53:08;16.30;1.00
9323;DHT22;4700;48.822;9.270;2023-05-23T01:55:54;16.30;1.00
9323;DHT22;4700;48.822;9.270;2023-05-23T01:58:40;16.30;1.00
9323;DHT22;4700;48.822;9.270;2023-05-23T02:01:34;16.30;1.00
9323;DHT22;4700;48.822;9.270;2023-05-23T02:04:20;16.30;1.00
9323;DHT22;4700;48.822;9.270;2023-05-23T02:07:06;16.30;1.00
9323;DHT22;4700;48.822;9.270;2023-05-23T02:09:52;16.30;1.00
9323;DHT22;4700;48.822;9.270;2023-05-23T02:12:38;16.30;1.00
9323;DHT22;4700;48.822;9.270;2023-05-23T02:15:24;16.40;1.00
9323;DHT22;4700;48.822;9.270;2023-05-23T02:18:11;16.50;1.00
9323;DHT22;4700;48.822;9.270;2023-05-23T02:20:57;16.50;1.00
9323;DHT22;4700;48.822;9.270;2023-05-23T02:23:43;16.50;1.00
9323;DHT22;4700;48.822;9.270;2023-05-23T02:26:29;16.50;1.00
9323;DHT22;4700;48.822;9.270;2023-05-23T02:29:14;16.50;1.00
9323;DHT22;4700;48.822;9.270;2023-05-23T02:32:00;16.50;1.00
9323;DHT22;4700;48.822;9.270;2023-05-23T02:34:47;16.60;1.00
9323;DHT22;4700;48.822;9.270;2023-05-23T02:37:34;16.60;1.00
9323;DHT22;4700;48.822;9.270;2023-05-23T02:40:20;16.80;1.00
9323;DHT22;4700;48.822;9.270;2023-05-23T02:43:05;16.70;1.00
9323;DHT22;4700;48.822;9.270;2023-05-23T02:45:51;16.80;1.00
9323;DHT22;4700;48.822;9.270;2023-05-23T02:48:37;16.80;1.00
9323;DHT22;4700;48.822;9.270;2023-05-23T02:51:24;16.90;1.00
9323;DHT22;4700;48.822;9.270;2023-05-23T02:54:12;16.90;1.00
9323;DHT22;4700;48.822;9.270;2023-05-23T02:56:57;17.00;1.00
9323;DHT22;4700;48.822;9.270;2023-05-23T02:59:44;17.00;1.00
9323;DHT22;4700;48.822;9.270;2023-05-23T03:02:30;17.10;1.00
9323;DHT22;4700;48.822;9.270;2023-05-23T03:05:15;17.10;1.00
9323;DHT22;4700;48.822;9.270;2023-05-23T03:08:03;17.10;1.00
9323;DHT22;4700;48.822;9.270;2023-05-23T03:10:49;17.10;1.00
9323;DHT22;4700;48.822;9.270;2023-05-23T03:13:34;17.10;1.00
9323;DHT22;4700;48.822;9.270;2023-05-23T03:16:21;17.10;1.00
9323;DHT22;4700;48.822;9.270;2023-05-23T03:19:07;17.20;1.00
9323;DHT22;4700;48.822;9.270;2023-05-23T03:21:53;17.20;1.00
9323;DHT22;4700;48.822;9.270;2023-05-23T03:24:40;17.20;1.00
9323;DHT22;4700;48.822;9.270;2023-05-23T03:27:26;17.30;1.00
9323;DHT22;4700;48.822;9.270;2023-05-23T03:30:14;17.20;1.00
9323;DHT22;4700;48.822;9.270;2023-05-23T03:32:59;17.30;1.00
9323;DHT22;4700;48.822;9.270;2023-05-23T03:35:46;17.30;1.00
9323;DHT22;4700;48.822;9.270;2023-05-23T03:38:31;17.30;1.00
9323;DHT22;4700;48.822;9.270;2023-05-23T03:41:20;17.30;1.00
9323;DHT22;4700;48.822;9.270;2023-05-23T03:44:05;17.30;1.00
9323;DHT22;4700;48.822;9.270;2023-05-23T03:46:51;17.30;1.00
9323;DHT22;4700;48.822;9.270;2023-05-23T03:49:37;17.20;1.00
9323;DHT22;4700;48.822;9.270;2023-05-23T03:52:23;17.20;1.00
9323;DHT22;4700;48.822;9.270;2023-05-23T03:55:09;17.30;1.00
9323;DHT22;4700;48.822;9.270;2023-05-23T03:57:56;17.30;1.00
9323;DHT22;4700;48.822;9.270;2023-05-23T04:00:42;17.30;1.00
9323;DHT22;4700;48.822;9.270;2023-05-23T04:03:28;17.40;1.00
9323;DHT22;4700;48.822;9.270;2023-05-23T04:06:16;17.40;1.00
9323;DHT22;4700;48.822;9.270;2023-05-23T04:09:03;17.40;1.00
9323;DHT22;4700;48.822;9.270;2023-05-23T04:11:50;17.40;1.00
9323;DHT22;4700;48.822;9.270;2023-05-23T04:14:37;17.40;1.00
9323;DHT22;4700;48.822;9.270;2023-05-23T04:17:23;17.40;1.00
9323;DHT22;4700;48.822;9.270;2023-05-23T04:19:52;17.30;1.00
9323;DHT22;4700;48.822;9.270;2023-05-23T04:22:38;17.30;1.00
9323;DHT22;4700;48.822;9.270;2023-05-23T04:25:24;17.30;1.00
9323;DHT22;4700;48.822;9.270;2023-05-23T04:28:10;17.40;1.00
9323;DHT22;4700;48.822;9.270;2023-05-23T04:30:59;17.40;1.00
9323;DHT22;4700;48.822;9.270;2023-05-23T04:33:46;17.30;1.00
9323;DHT22;4700;48.822;9.270;2023-05-23T04:36:31;17.30;1.00
9323;DHT22;4700;48.822;9.270;2023-05-23T04:39:21;17.30;1.00
9323;DHT22;4700;48.822;9.270;2023-05-23T04:42:07;17.30;1.00
9323;DHT22;4700;48.822;9.270;2023-05-23T04:44:53;17.30;1.00
9323;DHT22;4700;48.822;9.270;2023-05-23T04:47:42;17.30;1.00
9323;DHT22;4700;48.822;9.270;2023-05-23T04:50:28;17.30;1.00
9323;DHT22;4700;48.822;9.270;2023-05-23T04:53:16;17.40;1.00
9323;DHT22;4700;48.822;9.270;2023-05-23T04:56:01;17.50;1.00
9323;DHT22;4700;48.822;9.270;2023-05-23T04:58:47;17.60;1.00
9323;DHT22;4700;48.822;9.270;2023-05-23T05:01:33;17.60;1.00
9323;DHT22;4700;48.822;9.270;2023-05-23T05:07:07;17.80;1.00
9323;DHT22;4700;48.822;9.270;2023-05-23T05:09:53;17.80;1.00
9323;DHT22;4700;48.822;9.270;2023-05-23T05:12:38;17.90;1.00
9323;DHT22;4700;48.822;9.270;2023-05-23T05:15:24;18.10;1.00
9323;DHT22;4700;48.822;9.270;2023-05-23T05:18:10;18.20;1.00
9323;DHT22;4700;48.822;9.270;2023-05-23T05:20:57;18.20;1.00
9323;DHT22;4700;48.822;9.270;2023-05-23T05:23:43;18.20;1.00
9323;DHT22;4700;48.822;9.270;2023-05-23T05:26:29;18.20;1.00
9323;DHT22;4700;48.822;9.270;2023-05-23T05:29:15;18.20;1.00
9323;DHT22;4700;48.822;9.270;2023-05-23T05:32:01;18.10;1.00
9323;DHT22;4700;48.822;9.270;2023-05-23T05:34:46;18.10;1.00
9323;DHT22;4700;48.822;9.270;2023-05-23T05:37:33;18.10;1.00
9323;DHT22;4700;48.822;9.270;2023-05-23T05:40:20;18.20;1.00
9323;DHT22;4700;48.822;9.270;2023-05-23T05:43:05;18.30;1.00
9323;DHT22;4700;48.822;9.270;2023-05-23T05:45:51;18.50;1.00
9323;DHT22;4700;48.822;9.270;2023-05-23T05:48:36;18.60;1.00
9323;DHT22;4700;48.822;9.270;2023-05-23T05:51:22;18.70;1.00
9323;DHT22;4700;48.822;9.270;2023-05-23T05:54:10;18.90;1.00
9323;DHT22;4700;48.822;9.270;2023-05-23T05:56:55;18.90;1.00
9323;DHT22;4700;48.822;9.270;2023-05-23T05:59:41;19.00;1.00
9323;DHT22;4700;48.822;9.270;2023-05-23T06:02:27;18.90;1.00
9323;DHT22;4700;48.822;9.270;2023-05-23T06:05:13;18.90;1.00
9323;DHT22;4700;48.822;9.270;2023-05-23T06:08:00;18.90;1.00
9323;DHT22;4700;48.822;9.270;2023-05-23T06:10:47;18.90;1.00
9323;DHT22;4700;48.822;9.270;2023-05-23T06:13:32;18.80;1.00
9323;DHT22;4700;48.822;9.270;2023-05-23T06:16:19;18.70;1.00
9323;DHT22;4700;48.822;9.270;2023-05-23T06:19:05;18.60;1.00
9323;DHT22;4700;48.822;9.270;2023-05-23T06:21:52;18.50;1.00
9323;DHT22;4700;48.822;9.270;2023-05-23T06:24:38;18.50;1.00
9323;DHT22;4700;48.822;9.270;2023-05-23T06:27:25;18.60;1.00
9323;DHT22;4700;48.822;9.270;2023-05-23T06:30:12;18.70;1.00
9323;DHT22;4700;48.822;9.270;2023-05-23T06:32:58;18.90;1.00
9323;DHT22;4700;48.822;9.270;2023-05-23T06:35:43;18.90;1.00
9323;DHT22;4700;48.822;9.270;2023-05-23T06:38:30;18.80;1.00
9323;DHT22;4700;48.822;9.270;2023-05-23T06:41:18;18.90;1.00
9323;DHT22;4700;48.822;9.270;2023-05-23T06:44:05;19.00;1.00
9323;DHT22;4700;48.822;9.270;2023-05-23T06:46:50;19.00;1.00
9323;DHT22;4700;48.822;9.270;2023-05-23T06:49:42;19.10;1.00
9323;DHT22;4700;48.822;9.270;2023-05-23T06:52:29;19.20;1.00
9323;DHT22;4700;48.822;9.270;2023-05-23T06:55:14;19.20;1.00
9323;DHT22;4700;48.822;9.270;2023-05-23T06:58:02;19.20;1.00
9323;DHT22;4700;48.822;9.270;2023-05-23T07:00:50;19.00;1.00
9323;DHT22;4700;48.822;9.270;2023-05-23T07:03:35;18.90;1.00
9323;DHT22;4700;48.822;9.270;2023-05-23T07:06:25;18.80;1.00
9323;DHT22;4700;48.822;9.270;2023-05-23T07:09:11;18.70;1.00
9323;DHT22;4700;48.822;9.270;2023-05-23T07:11:58;18.70;1.00
9323;DHT22;4700;48.822;9.270;2023-05-23T07:14:47;18.60;1.00
9323;DHT22;4700;48.822;9.270;2023-05-23T07:17:41;18.60;1.00
9323;DHT22;4700;48.822;9.270;2023-05-23T07:20:25;18.60;1.00
9323;DHT22;4700;48.822;9.270;2023-05-23T07:23:11;18.60;1.00
9323;DHT22;4700;48.822;9.270;2023-05-23T07:25:57;18.40;1.00
9323;DHT22;4700;48.822;9.270;2023-05-23T07:28:43;18.20;1.00
9323;DHT22;4700;48.822;9.270;2023-05-23T07:31:34;18.00;1.00
9323;DHT22;4700;48.822;9.270;2023-05-23T07:34:22;18.00;1.00
9323;DHT22;4700;48.822;9.270;2023-05-23T07:37:11;17.90;1.00
9323;DHT22;4700;48.822;9.270;2023-05-23T07:39:58;17.70;1.00
9323;DHT22;4700;48.822;9.270;2023-05-23T07:42:44;17.50;1.00
9323;DHT22;4700;48.822;9.270;2023-05-23T07:45:30;17.50;1.00
9323;DHT22;4700;48.822;9.270;2023-05-23T07:48:16;17.50;1.00
9323;DHT22;4700;48.822;9.270;2023-05-23T07:51:05;17.80;1.00
9323;DHT22;4700;48.822;9.270;2023-05-23T07:53:52;18.30;1.00
9323;DHT22;4700;48.822;9.270;2023-05-23T07:56:38;18.50;1.00
9323;DHT22;4700;48.822;9.270;2023-05-23T07:59:23;19.10;1.00
9323;DHT22;4700;48.822;9.270;2023-05-23T08:02:10;20.30;1.00
9323;DHT22;4700;48.822;9.270;2023-05-23T08:04:56;21.20;1.00
9323;DHT22;4700;48.822;9.270;2023-05-23T08:10:30;21.70;1.00
9323;DHT22;4700;48.822;9.270;2023-05-23T08:13:16;21.30;1.00
9323;DHT22;4700;48.822;9.270;2023-05-23T08:16:01;21.30;1.00
9323;DHT22;4700;48.822;9.270;2023-05-23T08:18:47;20.50;1.00
9323;DHT22;4700;48.822;9.270;2023-05-23T08:21:34;20.40;1.00
9323;DHT22;4700;48.822;9.270;2023-05-23T08:24:21;20.10;1.00
9323;DHT22;4700;48.822;9.270;2023-05-23T08:27:11;19.90;1.00
9323;DHT22;4700;48.822;9.270;2023-05-23T08:29:58;19.70;1.00
9323;DHT22;4700;48.822;9.270;2023-05-23T08:32:43;19.40;1.00
9323;DHT22;4700;48.822;9.270;2023-05-23T08:35:32;19.20;1.00
9323;DHT22;4700;48.822;9.270;2023-05-23T08:38:19;19.40;1.00
9323;DHT22;4700;48.822;9.270;2023-05-23T08:41:17;19.50;1.00
9323;DHT22;4700;48.822;9.270;2023-05-23T08:44:09;19.80;1.00
9323;DHT22;4700;48.822;9.270;2023-05-23T08:46:59;19.90;1.00
9323;DHT22;4700;48.822;9.270;2023-05-23T08:49:51;19.60;1.00
9323;DHT22;4700;48.822;9.270;2023-05-23T08:52:43;19.60;1.00
9323;DHT22;4700;48.822;9.270;2023-05-23T08:55:37;19.30;1.00
9323;DHT22;4700;48.822;9.270;2023-05-23T08:58:29;19.30;1.00
9323;DHT22;4700;48.822;9.270;2023-05-23T09:01:17;19.70;1.00
9323;DHT22;4700;48.822;9.270;2023-05-23T09:04:05;20.20;1.00
9323;DHT22;4700;48.822;9.270;2023-05-23T09:06:51;20.10;1.00
9323;DHT22;4700;48.822;9.270;2023-05-23T09:09:38;20.10;1.00
9323;DHT22;4700;48.822;9.270;2023-05-23T09:12:24;19.80;1.00
9323;DHT22;4700;48.822;9.270;2023-05-23T09:15:12;19.60;1.00
9323;DHT22;4700;48.822;9.270;2023-05-23T09:17:59;19.50;1.00
9323;DHT22;4700;48.822;9.270;2023-05-23T09:20:47;19.30;1.00
9323;DHT22;4700;48.822;9.270;2023-05-23T09:23:34;19.30;1.00
9323;DHT22;4700;48.822;9.270;2023-05-23T09:26:20;19.00;1.00
9323;DHT22;4700;48.822;9.270;2023-05-23T09:29:06;18.90;1.00
9323;DHT22;4700;48.822;9.270;2023-05-23T09:31:59;18.80;1.00
9323;DHT22;4700;48.822;9.270;2023-05-23T09:34:55;18.90;1.00
9323;DHT22;4700;48.822;9.270;2023-05-23T09:37:43;18.90;1.00
9323;DHT22;4700;48.822;9.270;2023-05-23T09:40:30;19.20;1.00
9323;DHT22;4700;48.822;9.270;2023-05-23T09:43:17;19.20;1.00
9323;DHT22;4700;48.822;9.270;2023-05-23T09:46:06;19.30;1.00
9323;DHT22;4700;48.822;9.270;2023-05-23T09:51:40;19.10;1.00
9323;DHT22;4700;48.822;9.270;2023-05-23T09:54:27;19.10;1.00
9323;DHT22;4700;48.822;9.270;2023-05-23T09:57:14;18.70;1.00
9323;DHT22;4700;48.822;9.270;2023-05-23T10:00:03;18.60;1.00
9323;DHT22;4700;48.822;9.270;2023-05-23T10:02:54;18.50;1.00
9323;DHT22;4700;48.822;9.270;2023-05-23T10:05:46;18.60;1.00
9323;DHT22;4700;48.822;9.270;2023-05-23T10:08:36;18.70;1.00
9323;DHT22;4700;48.822;9.270;2023-05-23T10:15:00;19.10;1.00
9323;DHT22;4700;48.822;9.270;2023-05-23T10:18:00;19.60;1.00
9323;DHT22;4700;48.822;9.270;2023-05-23T10:20:48;19.80;1.00
9323;DHT22;4700;48.822;9.270;2023-05-23T10:23:38;20.00;1.00
9323;DHT22;4700;48.822;9.270;2023-05-23T10:26:25;20.20;1.00
9323;DHT22;4700;48.822;9.270;2023-05-23T10:32:09;20.30;1.00
9323;DHT22;4700;48.822;9.270;2023-05-23T10:35:03;20.30;1.00
9323;DHT22;4700;48.822;9.270;2023-05-23T10:37:58;20.40;1.00
9323;DHT22;4700;48.822;9.270;2023-05-23T10:40:51;20.40;1.00
9323;DHT22;4700;48.822;9.270;2023-05-23T10:43:46;20.40;1.00
9323;DHT22;4700;48.822;9.270;2023-05-23T10:46:50;20.40;1.00
9323;DHT22;4700;48.822;9.270;2023-05-23T10:49:38;20.50;1.00
9323;DHT22;4700;48.822;9.270;2023-05-23T10:52:26;20.60;1.00
9323;DHT22;4700;48.822;9.270;2023-05-23T10:55:24;20.70;1.00
9323;DHT22;4700;48.822;9.270;2023-05-23T10:58:14;20.90;1.00
9323;DHT22;4700;48.822;9.270;2023-05-23T11:01:05;21.10;1.00
9323;DHT22;4700;48.822;9.270;2023-05-23T11:03:52;21.20;1.00
9323;DHT22;4700;48.822;9.270;2023-05-23T11:06:39;21.20;1.00
9323;DHT22;4700;48.822;9.270;2023-05-23T11:09:26;21.30;1.00
9323;DHT22;4700;48.822;9.270;2023-05-23T11:12:14;21.10;1.00
9323;DHT22;4700;48.822;9.270;2023-05-23T11:15:18;21.40;1.00
9323;DHT22;4700;48.822;9.270;2023-05-23T11:18:05;21.60;1.00
9323;DHT22;4700;48.822;9.270;2023-05-23T11:20:52;21.50;1.00
9323;DHT22;4700;48.822;9.270;2023-05-23T11:23:40;21.30;1.00
9323;DHT22;4700;48.822;9.270;2023-05-23T11:26:29;21.10;1.00
9323;DHT22;4700;48.822;9.270;2023-05-23T11:29:18;21.00;1.00
9323;DHT22;4700;48.822;9.270;2023-05-23T11:32:09;20.90;1.00
9323;DHT22;4700;48.822;9.270;2023-05-23T11:34:58;20.80;1.00
9323;DHT22;4700;48.822;9.270;2023-05-23T11:37:45;21.00;1.00
9323;DHT22;4700;48.822;9.270;2023-05-23T11:40:35;21.30;1.00
9323;DHT22;4700;48.822;9.270;2023-05-23T11:43:21;21.60;1.00
9323;DHT22;4700;48.822;9.270;2023-05-23T11:46:08;22.10;1.00
9323;DHT22;4700;48.822;9.270;2023-05-23T11:48:54;21.80;1.00
9323;DHT22;4700;48.822;9.270;2023-05-23T11:51:40;21.70;1.00
9323;DHT22;4700;48.822;9.270;2023-05-23T11:54:26;21.70;1.00
9323;DHT22;4700;48.822;9.270;2023-05-23T11:57:14;21.80;1.00
9323;DHT22;4700;48.822;9.270;2023-05-23T12:00:00;21.60;1.00
9323;DHT22;4700;48.822;9.270;2023-05-23T12:02:51;21.70;1.00
9323;DHT22;4700;48.822;9.270;2023-05-23T12:05:37;21.70;1.00
9323;DHT22;4700;48.822;9.270;2023-05-23T12:08:26;21.60;1.00
9323;DHT22;4700;48.822;9.270;2023-05-23T12:11:12;21.70;1.00
9323;DHT22;4700;48.822;9.270;2023-05-23T12:13:58;21.90;1.00
9323;DHT22;4700;48.822;9.270;2023-05-23T12:16:51;22.30;1.00
9323;DHT22;4700;48.822;9.270;2023-05-23T12:19:39;22.40;1.00
9323;DHT22;4700;48.822;9.270;2023-05-23T12:22:25;22.40;1.00
9323;DHT22;4700;48.822;9.270;2023-05-23T12:25:11;21.90;1.00
9323;DHT22;4700;48.822;9.270;2023-05-23T12:27:57;21.90;1.00
9323;DHT22;4700;48.822;9.270;2023-05-23T12:30:44;21.90;1.00
9323;DHT22;4700;48.822;9.270;2023-05-23T12:33:30;21.90;1.00
9323;DHT22;4700;48.822;9.270;2023-05-23T12:36:23;22.10;1.00
9323;DHT22;4700;48.822;9.270;2023-05-23T12:39:09;22.10;1.00
9323;DHT22;4700;48.822;9.270;2023-05-23T12:42:05;22.00;1.00
9323;DHT22;4700;48.822;9.270;2023-05-23T12:44:52;22.30;1.00
9323;DHT22;4700;48.822;9.270;2023-05-23T12:47:38;22.40;1.00
9323;DHT22;4700;48.822;9.270;2023-05-23T12:50:25;22.50;1.00
9323;DHT22;4700;48.822;9.270;2023-05-23T12:56:01;22.20;1.00
9323;DHT22;4700;48.822;9.270;2023-05-23T12:58:47;22.00;1.00
9323;DHT22;4700;48.822;9.270;2023-05-23T13:01:34;22.00;1.00
9323;DHT22;4700;48.822;9.270;2023-05-23T13:04:19;22.00;1.00
9323;DHT22;4700;48.822;9.270;2023-05-23T13:07:05;22.10;1.00
9323;DHT22;4700;48.822;9.270;2023-05-23T13:09:52;22.30;1.00
9323;DHT22;4700;48.822;9.270;2023-05-23T13:12:38;22.30;1.00
9323;DHT22;4700;48.822;9.270;2023-05-23T13:15:24;22.30;1.00
9323;DHT22;4700;48.822;9.270;2023-05-23T13:18:10;22.30;1.00
9323;DHT22;4700;48.822;9.270;2023-05-23T13:20:56;22.40;1.00
9323;DHT22;4700;48.822;9.270;2023-05-23T13:23:42;22.30;1.00
9323;DHT22;4700;48.822;9.270;2023-05-23T13:26:29;21.70;1.00
9323;DHT22;4700;48.822;9.270;2023-05-23T13:29:15;21.30;1.00
9323;DHT22;4700;48.822;9.270;2023-05-23T13:32:01;21.00;1.00
9323;DHT22;4700;48.822;9.270;2023-05-23T13:34:46;20.70;1.00
9323;DHT22;4700;48.822;9.270;2023-05-23T13:37:35;20.80;1.00
9323;DHT22;4700;48.822;9.270;2023-05-23T13:40:21;20.80;1.00
9323;DHT22;4700;48.822;9.270;2023-05-23T13:43:08;21.10;1.00
9323;DHT22;4700;48.822;9.270;2023-05-23T13:45:54;21.20;1.00
9323;DHT22;4700;48.822;9.270;2023-05-23T13:48:40;21.70;1.00
9323;DHT22;4700;48.822;9.270;2023-05-23T13:51:25;21.60;1.00
9323;DHT22;4700;48.822;9.270;2023-05-23T13:54:11;21.40;1.00
9323;DHT22;4700;48.822;9.270;2023-05-23T13:56:58;21.20;1.00
9323;DHT22;4700;48.822;9.270;2023-05-23T13:59:46;20.90;1.00
9323;DHT22;4700;48.822;9.270;2023-05-23T14:02:35;21.40;1.00
9323;DHT22;4700;48.822;9.270;2023-05-23T14:05:21;21.60;1.00
9323;DHT22;4700;48.822;9.270;2023-05-23T14:08:07;21.80;1.00
9323;DHT22;4700;48.822;9.270;2023-05-23T14:10:56;21.90;1.00
9323;DHT22;4700;48.822;9.270;2023-05-23T14:13:42;21.90;1.00
9323;DHT22;4700;48.822;9.270;2023-05-23T14:16:30;21.90;1.00
9323;DHT22;4700;48.822;9.270;2023-05-23T14:21:43;22.20;1.00
9323;DHT22;4700;48.822;9.270;2023-05-23T14:24:28;22.20;1.00
9323;DHT22;4700;48.822;9.270;2023-05-23T14:27:14;22.30;1.00
9323;DHT22;4700;48.822;9.270;2023-05-23T14:32:51;21.70;1.00
9323;DHT22;4700;48.822;9.270;2023-05-23T14:35:37;21.50;1.00
9323;DHT22;4700;48.822;9.270;2023-05-23T14:38:26;21.50;1.00
9323;DHT22;4700;48.822;9.270;2023-05-23T14:41:12;21.60;1.00
9323;DHT22;4700;48.822;9.270;2023-05-23T14:43:57;21.80;1.00
9323;DHT22;4700;48.822;9.270;2023-05-23T14:46:46;22.00;1.00
9323;DHT22;4700;48.822;9.270;2023-05-23T14:49:34;22.00;1.00
9323;DHT22;4700;48.822;9.270;2023-05-23T14:52:23;21.80;1.00
9323;DHT22;4700;48.822;9.270;2023-05-23T14:55:09;21.80;1.00
9323;DHT22;4700;48.822;9.270;2023-05-23T14:57:55;21.60;1.00
9323;DHT22;4700;48.822;9.270;2023-05-23T15:00:41;21.50;1.00
9323;DHT22;4700;48.822;9.270;2023-05-23T15:03:32;21.50;1.00
9323;DHT22;4700;48.822;9.270;2023-05-23T15:06:19;21.50;1.00
9323;DHT22;4700;48.822;9.270;2023-05-23T15:09:05;21.50;1.00
9323;DHT22;4700;48.822;9.270;2023-05-23T15:11:52;21.50;1.00
9323;DHT22;4700;48.822;9.270;2023-05-23T15:14:38;21.40;1.00
9323;DHT22;4700;48.822;9.270;2023-05-23T15:17:24;21.40;1.00
9323;DHT22;4700;48.822;9.270;2023-05-23T15:20:11;21.30;1.00
9323;DHT22;4700;48.822;9.270;2023-05-23T15:22:58;21.20;1.00
9323;DHT22;4700;48.822;9.270;2023-05-23T15:25:44;21.30;1.00
9323;DHT22;4700;48.822;9.270;2023-05-23T15:28:30;21.20;1.00
9323;DHT22;4700;48.822;9.270;2023-05-23T15:31:19;21.20;1.00
9323;DHT22;4700;48.822;9.270;2023-05-23T15:34:05;21.20;1.00
9323;DHT22;4700;48.822;9.270;2023-05-23T15:36:51;21.40;1.00
9323;DHT22;4700;48.822;9.270;2023-05-23T15:39:38;21.60;1.00
9323;DHT22;4700;48.822;9.270;2023-05-23T15:42:24;21.60;1.00
9323;DHT22;4700;48.822;9.270;2023-05-23T15:45:11;21.40;1.00
9323;DHT22;4700;48.822;9.270;2023-05-23T15:47:57;21.20;1.00
9323;DHT22;4700;48.822;9.270;2023-05-23T15:50:43;21.00;1.00
9323;DHT22;4700;48.822;9.270;2023-05-23T15:53:30;21.00;1.00
9323;DHT22;4700;48.822;9.270;2023-05-23T15:56:17;21.00;1.00
9323;DHT22;4700;48.822;9.270;2023-05-23T15:59:03;21.10;1.00
9323;DHT22;4700;48.822;9.270;2023-05-23T16:01:48;21.30;1.00
9323;DHT22;4700;48.822;9.270;2023-05-23T16:04:34;21.40;1.00
9323;DHT22;4700;48.822;9.270;2023-05-23T16:07:20;21.60;1.00
9323;DHT22;4700;48.822;9.270;2023-05-23T16:10:06;21.70;1.00
9323;DHT22;4700;48.822;9.270;2023-05-23T16:12:53;21.80;1.00
9323;DHT22;4700;48.822;9.270;2023-05-23T16:15:39;21.70;1.00
9323;DHT22;4700;48.822;9.270;2023-05-23T16:18:25;21.40;1.00
9323;DHT22;4700;48.822;9.270;2023-05-23T16:21:10;21.40;1.00
9323;DHT22;4700;48.822;9.270;2023-05-23T16:23:56;21.40;1.00
9323;DHT22;4700;48.822;9.270;2023-05-23T16:26:42;21.30;1.00
9323;DHT22;4700;48.822;9.270;2023-05-23T16:29:29;21.20;1.00
9323;DHT22;4700;48.822;9.270;2023-05-23T16:32:15;21.30;1.00
9323;DHT22;4700;48.822;9.270;2023-05-23T16:35:00;21.30;1.00
9323;DHT22;4700;48.822;9.270;2023-05-23T16:37:46;21.10;1.00
9323;DHT22;4700;48.822;9.270;2023-05-23T16:40:34;20.90;1.00
9323;DHT22;4700;48.822;9.270;2023-05-23T16:43:20;20.80;1.00
9323;DHT22;4700;48.822;9.270;2023-05-23T16:46:07;20.70;1.00
9323;DHT22;4700;48.822;9.270;2023-05-23T16:48:53;20.60;1.00
9323;DHT22;4700;48.822;9.270;2023-05-23T16:51:40;20.50;1.00
9323;DHT22;4700;48.822;9.270;2023-05-23T16:54:25;20.40;1.00
9323;DHT22;4700;48.822;9.270;2023-05-23T16:57:11;20.40;1.00
9323;DHT22;4700;48.822;9.270;2023-05-23T16:59:57;20.40;1.00
9323;DHT22;4700;48.822;9.270;2023-05-23T17:02:44;20.30;1.00
9323;DHT22;4700;48.822;9.270;2023-05-23T17:05:31;20.40;1.00
9323;DHT22;4700;48.822;9.270;2023-05-23T17:08:17;20.60;1.00
9323;DHT22;4700;48.822;9.270;2023-05-23T17:11:03;20.70;1.00
9323;DHT22;4700;48.822;9.270;2023-05-23T17:13:49;20.80;1.00
9323;DHT22;4700;48.822;9.270;2023-05-23T17:16:35;20.70;1.00
9323;DHT22;4700;48.822;9.270;2023-05-23T17:19:22;20.50;1.00
9323;DHT22;4700;48.822;9.270;2023-05-23T17:22:08;20.10;1.00
9323;DHT22;4700;48.822;9.270;2023-05-23T17:24:54;19.90;1.00
9323;DHT22;4700;48.822;9.270;2023-05-23T17:27:39;19.80;1.00
9323;DHT22;4700;48.822;9.270;2023-05-23T17:30:25;19.70;1.00
9323;DHT22;4700;48.822;9.270;2023-05-23T17:33:13;19.60;1.00
9323;DHT22;4700;48.822;9.270;2023-05-23T17:36:01;19.30;1.00
9323;DHT22;4700;48.822;9.270;2023-05-23T17:38:46;19.40;1.00
9323;DHT22;4700;48.822;9.270;2023-05-23T17:41:32;19.30;1.00
9323;DHT22;4700;48.822;9.270;2023-05-23T17:44:17;19.40;1.00
9323;DHT22;4700;48.822;9.270;2023-05-23T17:47:04;19.30;1.00
9323;DHT22;4700;48.822;9.270;2023-05-23T17:49:50;19.30;1.00
9323;DHT22;4700;48.822;9.270;2023-05-23T17:52:37;19.20;1.00
9323;DHT22;4700;48.822;9.270;2023-05-23T17:55:22;19.20;1.00
9323;DHT22;4700;48.822;9.270;2023-05-23T17:58:08;19.10;1.00
9323;DHT22;4700;48.822;9.270;2023-05-23T18:00:54;19.00;1.00
9323;DHT22;4700;48.822;9.270;2023-05-23T18:03:39;18.70;1.00
9323;DHT22;4700;48.822;9.270;2023-05-23T18:06:25;18.60;1.00
9323;DHT22;4700;48.822;9.270;2023-05-23T18:09:12;18.50;1.00
9323;DHT22;4700;48.822;9.270;2023-05-23T18:11:58;18.50;1.00
9323;DHT22;4700;48.822;9.270;2023-05-23T18:14:44;18.40;1.00
9323;DHT22;4700;48.822;9.270;2023-05-23T18:17:31;18.40;1.00
9323;DHT22;4700;48.822;9.270;2023-05-23T18:20:16;18.30;1.00
9323;DHT22;4700;48.822;9.270;2023-05-23T18:23:03;18.20;1.00
9323;DHT22;4700;48.822;9.270;2023-05-23T18:25:50;18.10;1.00
9323;DHT22;4700;48.822;9.270;2023-05-23T18:28:35;18.10;1.00
9323;DHT22;4700;48.822;9.270;2023-05-23T18:31:24;17.90;1.00
9323;DHT22;4700;48.822;9.270;2023-05-23T18:34:13;17.80;1.00
9323;DHT22;4700;48.822;9.270;2023-05-23T18:36:59;17.80;1.00
9323;DHT22;4700;48.822;9.270;2023-05-23T18:39:46;17.80;1.00
9323;DHT22;4700;48.822;9.270;2023-05-23T18:42:33;17.80;1.00
9323;DHT22;4700;48.822;9.270;2023-05-23T18:45:19;17.70;1.00
9323;DHT22;4700;48.822;9.270;2023-05-23T18:48:04;17.60;1.00
9323;DHT22;4700;48.822;9.270;2023-05-23T18:50:50;17.60;1.00
9323;DHT22;4700;48.822;9.270;2023-05-23T18:53:36;17.60;1.00